Dillon, Illinois
Current Conditions -  °F | °C
As of 9:54 PM on Friday 19 Dec 2014 (Local Time) from KPIA Reporting Station
Scattered Clouds Scattered Clouds  
Wind Chill: 29°   Ceiling: Unl
Heat Index: 29°   Visibility: 9mi
Dew Point: 22°   Wind: 0mph
Humidity: 75%   Direction: NA
Pressure: 30.28"   Gusts: NA
Location:  40.4817°N, 89.4923°W
Report Text: KPIA 200354Z 00000KT 9SM SCT070 M02/M06 A3028 RMK AO2 SLP261 T10171056
Loading
Personal Weather Stations






























Interactive Weather Map New forecast layout! Learn more

10-Day Weather Forecast

Advertisements
Track Severe Weather on mobile